Airport ICAO


20:17 UTC

23°C

Clear skies


An affordable passengers' Moving Map for your aircraft. Made for the iPad and the iPhone
More information here

LFLS Saint Geoirs


Grenoble FRANCE   VFR CAVOK


METAR LFLS 162000Z AUTO 32010KT CAVOK 23/12 Q1014 0h17min

TAF LFLS 161400Z 1615/1715 34010KT CAVOK PROB40 TEMPO 1615/1617 VRB15G30KT 3000 TSRA BKN030CB PROB40 TEMPO 1617/1622 FEW030CB BKN070 TEMPO 1622/1706 VRB02KT BKN070 6h17min





NOTAMS

OPEN